sensor_id;sensor_type;location;lat;lon;timestamp;pressure;altitude;pressure_sealevel;temperature;humidity
26043;BME280;13818;52.156;5.382;2023-04-05T00:02:14;102243.09;;;5.12;100.00
26043;BME280;13818;52.156;5.382;2023-04-05T00:04:43;102239.56;;;5.07;100.00
26043;BME280;13818;52.156;5.382;2023-04-05T00:07:16;102236.06;;;5.11;100.00
26043;BME280;13818;52.156;5.382;2023-04-05T00:09:43;102236.97;;;5.08;100.00
26043;BME280;13818;52.156;5.382;2023-04-05T00:12:10;102242.22;;;5.14;100.00
26043;BME280;13818;52.156;5.382;2023-04-05T00:14:36;102238.72;;;5.00;100.00
26043;BME280;13818;52.156;5.382;2023-04-05T00:17:03;102233.41;;;5.06;100.00
26043;BME280;13818;52.156;5.382;2023-04-05T00:19:30;102230.78;;;5.06;100.00
26043;BME280;13818;52.156;5.382;2023-04-05T00:21:58;102228.13;;;5.11;100.00
26043;BME280;13818;52.156;5.382;2023-04-05T00:24:26;102223.72;;;5.03;100.00
26043;BME280;13818;52.156;5.382;2023-04-05T00:26:54;102228.16;;;5.04;100.00
26043;BME280;13818;52.156;5.382;2023-04-05T00:29:21;102222.84;;;5.03;100.00
26043;BME280;13818;52.156;5.382;2023-04-05T00:31:47;102226.38;;;5.02;100.00
26043;BME280;13818;52.156;5.382;2023-04-05T00:34:14;102229.00;;;5.00;100.00
26043;BME280;13818;52.156;5.382;2023-04-05T00:36:41;102229.91;;;4.96;100.00
26043;BME280;13818;52.156;5.382;2023-04-05T00:39:07;102219.31;;;4.90;100.00
26043;BME280;13818;52.156;5.382;2023-04-05T00:41:35;102215.81;;;4.88;100.00
26043;BME280;13818;52.156;5.382;2023-04-05T00:44:02;102214.94;;;4.77;100.00
26043;BME280;13818;52.156;5.382;2023-04-05T00:46:33;102214.91;;;4.67;100.00
26043;BME280;13818;52.156;5.382;2023-04-05T00:49:00;102207.00;;;4.66;100.00
26043;BME280;13818;52.156;5.382;2023-04-05T00:51:29;102211.41;;;4.71;100.00
26043;BME280;13818;52.156;5.382;2023-04-05T00:53:56;102210.53;;;4.68;100.00
26043;BME280;13818;52.156;5.382;2023-04-05T00:56:22;102215.81;;;4.65;100.00
26043;BME280;13818;52.156;5.382;2023-04-05T00:58:50;102217.59;;;4.72;100.00
26043;BME280;13818;52.156;5.382;2023-04-05T01:01:18;102205.25;;;4.79;100.00
26043;BME280;13818;52.156;5.382;2023-04-05T01:03:50;102201.75;;;4.77;100.00
26043;BME280;13818;52.156;5.382;2023-04-05T01:06:30;102202.63;;;4.76;100.00
26043;BME280;13818;52.156;5.382;2023-04-05T01:09:04;102192.94;;;4.73;100.00
26043;BME280;13818;52.156;5.382;2023-04-05T01:11:34;102201.72;;;4.84;100.00
26043;BME280;13818;52.156;5.382;2023-04-05T01:14:04;102199.06;;;4.83;100.00
26043;BME280;13818;52.156;5.382;2023-04-05T01:16:31;102199.06;;;4.75;100.00
26043;BME280;13818;52.156;5.382;2023-04-05T01:18:57;102193.78;;;4.69;100.00
26043;BME280;13818;52.156;5.382;2023-04-05T01:21:51;102196.44;;;4.67;100.00
26043;BME280;13818;52.156;5.382;2023-04-05T01:24:31;102184.09;;;4.86;100.00
26043;BME280;13818;52.156;5.382;2023-04-05T01:27:07;102186.75;;;4.82;100.00
26043;BME280;13818;52.156;5.382;2023-04-05T01:29:57;102192.03;;;4.89;100.00
26043;BME280;13818;52.156;5.382;2023-04-05T01:32:53;102189.41;;;4.76;100.00
26043;BME280;13818;52.156;5.382;2023-04-05T01:35:24;102171.78;;;4.76;100.00
26043;BME280;13818;52.156;5.382;2023-04-05T01:37:58;102184.13;;;4.82;100.00
26043;BME280;13818;52.156;5.382;2023-04-05T01:40:26;102175.31;;;4.75;100.00
26043;BME280;13818;52.156;5.382;2023-04-05T01:42:53;102176.16;;;4.86;100.00
26043;BME280;13818;52.156;5.382;2023-04-05T01:45:20;102178.81;;;4.80;100.00
26043;BME280;13818;52.156;5.382;2023-04-05T01:47:47;102184.13;;;4.77;100.00
26043;BME280;13818;52.156;5.382;2023-04-05T01:50:14;102181.47;;;4.76;100.00
26043;BME280;13818;52.156;5.382;2023-04-05T01:52:41;102177.09;;;4.79;100.00
26043;BME280;13818;52.156;5.382;2023-04-05T01:55:07;102179.72;;;4.62;100.00
26043;BME280;13818;52.156;5.382;2023-04-05T01:57:34;102170.91;;;4.71;100.00
26043;BME280;13818;52.156;5.382;2023-04-05T02:00:00;102172.69;;;4.77;100.00
26043;BME280;13818;52.156;5.382;2023-04-05T02:02:31;102160.34;;;4.82;100.00
26043;BME280;13818;52.156;5.382;2023-04-05T02:04:58;102161.22;;;4.71;100.00
26043;BME280;13818;52.156;5.382;2023-04-05T02:07:24;102158.59;;;4.59;100.00
26043;BME280;13818;52.156;5.382;2023-04-05T02:09:52;102165.63;;;4.55;100.00
26043;BME280;13818;52.156;5.382;2023-04-05T02:12:18;102161.22;;;4.54;100.00
26043;BME280;13818;52.156;5.382;2023-04-05T02:14:45;102161.22;;;4.33;100.00
26043;BME280;13818;52.156;5.382;2023-04-05T02:17:12;102156.78;;;4.15;100.00
26043;BME280;13818;52.156;5.382;2023-04-05T02:19:39;102153.28;;;4.17;100.00
26043;BME280;13818;52.156;5.382;2023-04-05T02:22:06;102152.38;;;4.18;100.00
26043;BME280;13818;52.156;5.382;2023-04-05T02:24:33;102146.25;;;4.16;100.00
26043;BME280;13818;52.156;5.382;2023-04-05T02:26:59;102146.22;;;4.21;100.00
26043;BME280;13818;52.156;5.382;2023-04-05T02:29:26;102140.94;;;4.15;100.00
26043;BME280;13818;52.156;5.382;2023-04-05T02:31:52;102145.31;;;4.02;100.00
26043;BME280;13818;52.156;5.382;2023-04-05T02:34:19;102136.50;;;3.81;100.00
26043;BME280;13818;52.156;5.382;2023-04-05T02:36:49;102140.03;;;3.86;100.00
26043;BME280;13818;52.156;5.382;2023-04-05T02:39:15;102144.44;;;3.94;100.00
26043;BME280;13818;52.156;5.382;2023-04-05T02:41:42;102145.31;;;3.91;100.00
26043;BME280;13818;52.156;5.382;2023-04-05T02:44:12;102134.72;;;3.72;100.00
26043;BME280;13818;52.156;5.382;2023-04-05T02:46:38;102130.28;;;3.65;100.00
26043;BME280;13818;52.156;5.382;2023-04-05T02:49:06;102132.94;;;3.61;100.00
26043;BME280;13818;52.156;5.382;2023-04-05T02:51:32;102134.66;;;3.57;100.00
26043;BME280;13818;52.156;5.382;2023-04-05T02:54:01;102125.00;;;3.54;100.00
26043;BME280;13818;52.156;5.382;2023-04-05T02:56:28;102123.19;;;3.47;100.00
26043;BME280;13818;52.156;5.382;2023-04-05T02:58:56;102122.28;;;3.47;100.00
26043;BME280;13818;52.156;5.382;2023-04-05T03:01:22;102116.13;;;3.41;100.00
26043;BME280;13818;52.156;5.382;2023-04-05T03:03:49;102120.50;;;3.35;100.00
26043;BME280;13818;52.156;5.382;2023-04-05T03:06:15;102118.75;;;3.40;100.00
26043;BME280;13818;52.156;5.382;2023-04-05T03:08:43;102111.75;;;3.40;100.00
26043;BME280;13818;52.156;5.382;2023-04-05T03:11:12;102113.47;;;3.31;100.00
26043;BME280;13818;52.156;5.382;2023-04-05T03:13:38;102106.44;;;3.27;100.00
26043;BME280;13818;52.156;5.382;2023-04-05T03:16:06;102115.13;;;3.12;100.00
26043;BME280;13818;52.156;5.382;2023-04-05T03:18:32;102103.63;;;2.97;100.00
26043;BME280;13818;52.156;5.382;2023-04-05T03:20:59;102108.94;;;3.00;100.00
26043;BME280;13818;52.156;5.382;2023-04-05T03:23:27;102113.28;;;3.01;100.00
26043;BME280;13818;52.156;5.382;2023-04-05T03:25:56;102104.50;;;2.96;100.00
26043;BME280;13818;52.156;5.382;2023-04-05T03:28:24;102108.00;;;2.93;100.00
26043;BME280;13818;52.156;5.382;2023-04-05T03:30:51;102111.47;;;2.88;100.00
26043;BME280;13818;52.156;5.382;2023-04-05T03:33:18;102107.97;;;2.89;100.00
26043;BME280;13818;52.156;5.382;2023-04-05T03:35:44;102094.69;;;2.70;100.00
26043;BME280;13818;52.156;5.382;2023-04-05T03:38:11;102092.91;;;2.68;100.00
26043;BME280;13818;52.156;5.382;2023-04-05T03:40:38;102099.91;;;2.63;100.00
26043;BME280;13818;52.156;5.382;2023-04-05T03:43:05;102097.28;;;2.61;100.00
26043;BME280;13818;52.156;5.382;2023-04-05T03:45:33;102098.06;;;2.51;100.00
26043;BME280;13818;52.156;5.382;2023-04-05T03:48:00;102100.78;;;2.62;100.00
26043;BME280;13818;52.156;5.382;2023-04-05T03:50:28;102098.09;;;2.58;100.00
26043;BME280;13818;52.156;5.382;2023-04-05T03:52:54;102104.22;;;2.51;100.00
26043;BME280;13818;52.156;5.382;2023-04-05T03:55:21;102098.91;;;2.45;100.00
26043;BME280;13818;52.156;5.382;2023-04-05T03:57:47;102097.09;;;2.39;100.00
26043;BME280;13818;52.156;5.382;2023-04-05T04:00:14;102101.44;;;2.34;100.00
26043;BME280;13818;52.156;5.382;2023-04-05T04:02:44;102102.34;;;2.36;100.00
26043;BME280;13818;52.156;5.382;2023-04-05T04:05:11;102096.22;;;2.39;100.00
26043;BME280;13818;52.156;5.382;2023-04-05T04:07:38;102091.81;;;2.36;100.00
26043;BME280;13818;52.156;5.382;2023-04-05T04:10:07;102088.28;;;2.33;100.00
26043;BME280;13818;52.156;5.382;2023-04-05T04:12:34;102084.69;;;2.24;100.00
26043;BME280;13818;52.156;5.382;2023-04-05T04:15:00;102091.66;;;2.18;100.00
26043;BME280;13818;52.156;5.382;2023-04-05T04:17:27;102096.91;;;2.18;100.00
26043;BME280;13818;52.156;5.382;2023-04-05T04:19:56;102093.38;;;2.13;100.00
26043;BME280;13818;52.156;5.382;2023-04-05T04:22:24;102089.88;;;2.12;100.00
26043;BME280;13818;52.156;5.382;2023-04-05T04:24:57;102095.13;;;2.14;100.00
26043;BME280;13818;52.156;5.382;2023-04-05T04:27:27;102089.88;;;2.12;100.00
26043;BME280;13818;52.156;5.382;2023-04-05T04:29:53;102094.16;;;2.05;100.00
26043;BME280;13818;52.156;5.382;2023-04-05T04:32:28;102092.44;;;2.06;100.00
26043;BME280;13818;52.156;5.382;2023-04-05T04:35:14;102095.94;;;2.06;100.00
26043;BME280;13818;52.156;5.382;2023-04-05T04:37:44;102098.53;;;2.03;100.00
26043;BME280;13818;52.156;5.382;2023-04-05T04:40:11;102095.00;;;2.01;100.00
26043;BME280;13818;52.156;5.382;2023-04-05T04:42:42;102102.91;;;2.03;100.00
26043;BME280;13818;52.156;5.382;2023-04-05T04:45:11;102092.38;;;2.01;100.00
26043;BME280;13818;52.156;5.382;2023-04-05T04:47:40;102093.22;;;1.97;100.00
26043;BME280;13818;52.156;5.382;2023-04-05T04:50:08;102092.31;;;1.92;100.00
26043;BME280;13818;52.156;5.382;2023-04-05T04:52:36;102095.78;;;1.91;100.00
26043;BME280;13818;52.156;5.382;2023-04-05T04:55:04;102101.06;;;1.94;100.00
26043;BME280;13818;52.156;5.382;2023-04-05T04:57:31;102099.25;;;1.87;100.00
26043;BME280;13818;52.156;5.382;2023-04-05T04:59:58;102097.50;;;1.89;100.00
26043;BME280;13818;52.156;5.382;2023-04-05T05:02:24;102106.25;;;1.88;100.00
26043;BME280;13818;52.156;5.382;2023-04-05T05:04:51;102093.16;;;1.89;100.00
26043;BME280;13818;52.156;5.382;2023-04-05T05:07:18;102096.66;;;1.88;100.00
26043;BME280;13818;52.156;5.382;2023-04-05T05:09:48;102087.91;;;1.89;100.00
26043;BME280;13818;52.156;5.382;2023-04-05T05:12:18;102086.13;;;1.87;100.00
26043;BME280;13818;52.156;5.382;2023-04-05T05:14:45;102089.63;;;1.89;100.00
26043;BME280;13818;52.156;5.382;2023-04-05T05:17:11;102087.91;;;1.89;100.00
26043;BME280;13818;52.156;5.382;2023-04-05T05:19:38;102082.66;;;1.94;100.00
26043;BME280;13818;52.156;5.382;2023-04-05T05:22:04;102085.28;;;1.92;100.00
26043;BME280;13818;52.156;5.382;2023-04-05T05:24:31;102092.31;;;1.97;100.00
26043;BME280;13818;52.156;5.382;2023-04-05T05:26:59;102079.22;;;2.03;100.00
26043;BME280;13818;52.156;5.382;2023-04-05T05:29:26;102088.94;;;2.08;100.00
26043;BME280;13818;52.156;5.382;2023-04-05T05:31:53;102088.09;;;2.13;100.00
26043;BME280;13818;52.156;5.382;2023-04-05T05:34:20;102080.38;;;2.31;100.00
26043;BME280;13818;52.156;5.382;2023-04-05T05:36:47;102084.13;;;2.67;100.00
26043;BME280;13818;52.156;5.382;2023-04-05T05:39:13;102087.88;;;3.09;100.00
26043;BME280;13818;52.156;5.382;2023-04-05T05:41:41;102082.75;;;3.47;100.00
26043;BME280;13818;52.156;5.382;2023-04-05T05:44:09;102087.22;;;3.74;100.00
26043;BME280;13818;52.156;5.382;2023-04-05T05:46:35;102087.31;;;4.27;100.00
26043;BME280;13818;52.156;5.382;2023-04-05T05:49:02;102090.81;;;4.52;100.00
26043;BME280;13818;52.156;5.382;2023-04-05T05:51:28;102088.03;;;5.09;100.00
26043;BME280;13818;52.156;5.382;2023-04-05T05:53:56;102099.22;;;5.68;100.00
26043;BME280;13818;52.156;5.382;2023-04-05T05:56:23;102085.97;;;5.76;100.00
26043;BME280;13818;52.156;5.382;2023-04-05T05:58:49;102095.53;;;6.02;100.00
26043;BME280;13818;52.156;5.382;2023-04-05T06:01:17;102098.59;;;6.60;100.00
26043;BME280;13818;52.156;5.382;2023-04-05T06:03:47;102092.88;;;7.02;100.00
26043;BME280;13818;52.156;5.382;2023-04-05T06:06:14;102097.94;;;7.22;100.00
26043;BME280;13818;52.156;5.382;2023-04-05T06:08:41;102098.81;;;7.24;100.00
26043;BME280;13818;52.156;5.382;2023-04-05T06:11:16;102096.81;;;7.40;99.41
26043;BME280;13818;52.156;5.382;2023-04-05T06:13:42;102090.91;;;8.42;95.84
26043;BME280;13818;52.156;5.382;2023-04-05T06:16:09;102093.38;;;7.98;94.89
26043;BME280;13818;52.156;5.382;2023-04-05T06:18:37;102090.41;;;8.19;94.44
26043;BME280;13818;52.156;5.382;2023-04-05T06:21:03;102100.81;;;8.29;93.10
26043;BME280;13818;52.156;5.382;2023-04-05T06:23:30;102100.41;;;8.01;93.88
26043;BME280;13818;52.156;5.382;2023-04-05T06:25:56;102094.75;;;8.76;92.96
26043;BME280;13818;52.156;5.382;2023-04-05T06:28:23;102100.75;;;8.87;95.71
26043;BME280;13818;52.156;5.382;2023-04-05T06:30:50;102100.81;;;8.84;91.08
26043;BME280;13818;52.156;5.382;2023-04-05T06:33:16;102112.59;;;9.60;86.72
26043;BME280;13818;52.156;5.382;2023-04-05T06:35:45;102109.94;;;9.16;84.65
26043;BME280;13818;52.156;5.382;2023-04-05T06:38:11;102101.72;;;10.08;82.92
26043;BME280;13818;52.156;5.382;2023-04-05T06:40:38;102109.03;;;9.61;83.96
26043;BME280;13818;52.156;5.382;2023-04-05T06:43:04;102105.53;;;9.57;82.13
26043;BME280;13818;52.156;5.382;2023-04-05T06:45:31;102103.56;;;9.66;81.13
26043;BME280;13818;52.156;5.382;2023-04-05T06:47:58;102099.88;;;9.73;80.25
26043;BME280;13818;52.156;5.382;2023-04-05T06:50:24;102104.56;;;9.61;80.59
26043;BME280;13818;52.156;5.382;2023-04-05T06:52:53;102100.44;;;9.04;80.48
26043;BME280;13818;52.156;5.382;2023-04-05T06:55:20;102103.63;;;8.75;81.07
26043;BME280;13818;52.156;5.382;2023-04-05T06:57:47;102103.31;;;9.37;81.70
26043;BME280;13818;52.156;5.382;2023-04-05T07:00:14;102106.53;;;10.30;79.88
26043;BME280;13818;52.156;5.382;2023-04-05T07:02:41;102106.91;;;9.75;78.12
26043;BME280;13818;52.156;5.382;2023-04-05T07:05:09;102104.50;;;9.65;76.35
26043;BME280;13818;52.156;5.382;2023-04-05T07:07:37;102110.00;;;9.96;76.51
26043;BME280;13818;52.156;5.382;2023-04-05T07:10:06;102096.97;;;10.57;76.88
26043;BME280;13818;52.156;5.382;2023-04-05T07:12:33;102101.66;;;10.49;74.98
26043;BME280;13818;52.156;5.382;2023-04-05T07:15:00;102096.81;;;10.64;75.01
26043;BME280;13818;52.156;5.382;2023-04-05T07:17:26;102105.31;;;11.11;73.04
26043;BME280;13818;52.156;5.382;2023-04-05T07:19:53;102105.03;;;11.52;70.55
26043;BME280;13818;52.156;5.382;2023-04-05T07:22:19;102106.25;;;11.10;70.11
26043;BME280;13818;52.156;5.382;2023-04-05T07:24:46;102112.81;;;11.30;70.52
26043;BME280;13818;52.156;5.382;2023-04-05T07:27:14;102103.63;;;11.68;67.75
26043;BME280;13818;52.156;5.382;2023-04-05T07:29:40;102096.59;;;11.96;68.91
26043;BME280;13818;52.156;5.382;2023-04-05T07:32:08;102099.31;;;11.64;67.95
26043;BME280;13818;52.156;5.382;2023-04-05T07:34:35;102095.09;;;11.27;69.82
26043;BME280;13818;52.156;5.382;2023-04-05T07:37:04;102090.25;;;11.70;68.12
26043;BME280;13818;52.156;5.382;2023-04-05T07:39:31;102096.81;;;11.28;67.45
26043;BME280;13818;52.156;5.382;2023-04-05T07:41:57;102093.94;;;11.36;68.55
26043;BME280;13818;52.156;5.382;2023-04-05T07:44:25;102089.44;;;11.06;69.38
26043;BME280;13818;52.156;5.382;2023-04-05T07:46:52;102102.94;;;11.00;68.74
26043;BME280;13818;52.156;5.382;2023-04-05T07:49:23;102091.09;;;10.79;68.08
26043;BME280;13818;52.156;5.382;2023-04-05T07:51:53;102089.22;;;10.48;68.44
26043;BME280;13818;52.156;5.382;2023-04-05T07:54:19;102088.78;;;10.65;68.74
26043;BME280;13818;52.156;5.382;2023-04-05T07:56:46;102091.88;;;11.16;68.02
26043;BME280;13818;52.156;5.382;2023-04-05T07:59:13;102082.03;;;10.85;69.22
26043;BME280;13818;52.156;5.382;2023-04-05T08:01:41;102081.78;;;10.94;70.33
26043;BME280;13818;52.156;5.382;2023-04-05T08:04:08;102090.06;;;10.50;69.82
26043;BME280;13818;52.156;5.382;2023-04-05T08:06:34;102085.38;;;10.93;70.82
26043;BME280;13818;52.156;5.382;2023-04-05T08:09:01;102084.41;;;10.96;68.50
26043;BME280;13818;52.156;5.382;2023-04-05T08:11:29;102086.25;;;11.25;69.25
26043;BME280;13818;52.156;5.382;2023-04-05T08:13:56;102088.63;;;11.03;68.02
26043;BME280;13818;52.156;5.382;2023-04-05T08:16:22;102089.59;;;11.02;69.28
26043;BME280;13818;52.156;5.382;2023-04-05T08:18:50;102079.03;;;10.97;68.96
26043;BME280;13818;52.156;5.382;2023-04-05T08:21:17;102090.50;;;11.31;68.21
26043;BME280;13818;52.156;5.382;2023-04-05T08:23:43;102099.16;;;11.09;66.97
26043;BME280;13818;52.156;5.382;2023-04-05T08:26:10;102084.59;;;10.89;67.28
26043;BME280;13818;52.156;5.382;2023-04-05T08:28:36;102085.75;;;11.11;68.03
26043;BME280;13818;52.156;5.382;2023-04-05T08:31:02;102083.69;;;10.90;66.02
26043;BME280;13818;52.156;5.382;2023-04-05T08:33:29;102079.66;;;10.74;65.97
26043;BME280;13818;52.156;5.382;2023-04-05T08:36:02;102085.09;;;10.71;66.15
26043;BME280;13818;52.156;5.382;2023-04-05T08:38:29;102069.72;;;10.46;66.93
26043;BME280;13818;52.156;5.382;2023-04-05T08:41:06;102077.81;;;10.76;66.52
26043;BME280;13818;52.156;5.382;2023-04-05T08:43:40;102075.34;;;11.33;64.75
26043;BME280;13818;52.156;5.382;2023-04-05T08:46:14;102077.91;;;11.06;65.02
26043;BME280;13818;52.156;5.382;2023-04-05T08:48:41;102078.56;;;10.81;61.38
26043;BME280;13818;52.156;5.382;2023-04-05T08:51:09;102074.06;;;10.50;63.81
26043;BME280;13818;52.156;5.382;2023-04-05T08:53:36;102072.91;;;10.61;63.95
26043;BME280;13818;52.156;5.382;2023-04-05T08:56:03;102071.81;;;11.01;62.51
26043;BME280;13818;52.156;5.382;2023-04-05T08:58:30;102074.69;;;11.54;61.60
26043;BME280;13818;52.156;5.382;2023-04-05T09:00:58;102068.13;;;11.36;60.25
26043;BME280;13818;52.156;5.382;2023-04-05T09:03:28;102072.25;;;11.17;57.09
26043;BME280;13818;52.156;5.382;2023-04-05T09:05:58;102071.25;;;11.79;55.08
26043;BME280;13818;52.156;5.382;2023-04-05T09:08:26;102075.72;;;11.50;56.86
26043;BME280;13818;52.156;5.382;2023-04-05T09:10:53;102075.50;;;11.86;54.61
26043;BME280;13818;52.156;5.382;2023-04-05T09:13:19;102069.50;;;11.50;54.02
26043;BME280;13818;52.156;5.382;2023-04-05T09:15:46;102066.78;;;10.90;51.84
26043;BME280;13818;52.156;5.382;2023-04-05T09:18:13;102067.16;;;11.39;50.17
26043;BME280;13818;52.156;5.382;2023-04-05T09:20:39;102070.78;;;11.66;50.90
26043;BME280;13818;52.156;5.382;2023-04-05T09:23:06;102077.59;;;11.47;51.05
26043;BME280;13818;52.156;5.382;2023-04-05T09:25:35;102072.38;;;11.44;51.42
26043;BME280;13818;52.156;5.382;2023-04-05T09:28:03;102066.94;;;12.30;49.38
26043;BME280;13818;52.156;5.382;2023-04-05T09:30:30;102067.22;;;11.94;51.23
26043;BME280;13818;52.156;5.382;2023-04-05T09:32:57;102063.84;;;12.43;49.25
26043;BME280;13818;52.156;5.382;2023-04-05T09:35:25;102074.44;;;12.19;47.46
26043;BME280;13818;52.156;5.382;2023-04-05T09:37:53;102066.31;;;11.37;47.96
26043;BME280;13818;52.156;5.382;2023-04-05T09:40:20;102051.28;;;10.71;52.54
26043;BME280;13818;52.156;5.382;2023-04-05T09:42:49;102053.53;;;10.54;53.54
26043;BME280;13818;52.156;5.382;2023-04-05T09:45:17;102055.69;;;11.35;53.51
26043;BME280;13818;52.156;5.382;2023-04-05T09:47:53;102060.75;;;10.50;54.76
26043;BME280;13818;52.156;5.382;2023-04-05T09:50:20;102055.66;;;10.74;54.95
26043;BME280;13818;52.156;5.382;2023-04-05T09:52:46;102049.50;;;10.72;53.72
26043;BME280;13818;52.156;5.382;2023-04-05T09:55:18;102059.84;;;10.84;53.50
26043;BME280;13818;52.156;5.382;2023-04-05T09:57:52;102059.00;;;11.14;50.79
26043;BME280;13818;52.156;5.382;2023-04-05T10:00:20;102056.56;;;11.36;49.30
26043;BME280;13818;52.156;5.382;2023-04-05T10:02:51;102063.25;;;10.89;51.31
26043;BME280;13818;52.156;5.382;2023-04-05T10:05:22;102051.69;;;10.21;50.56
26043;BME280;13818;52.156;5.382;2023-04-05T10:07:49;102048.34;;;10.49;51.99
26043;BME280;13818;52.156;5.382;2023-04-05T10:10:15;102046.09;;;10.67;51.86
26043;BME280;13818;52.156;5.382;2023-04-05T10:12:42;102041.88;;;10.22;52.28
26043;BME280;13818;52.156;5.382;2023-04-05T10:15:11;102037.50;;;10.55;52.69
26043;BME280;13818;52.156;5.382;2023-04-05T10:17:47;102032.28;;;10.84;51.49
26043;BME280;13818;52.156;5.382;2023-04-05T10:20:16;102022.50;;;10.84;50.82
26043;BME280;13818;52.156;5.382;2023-04-05T10:22:54;102032.91;;;10.61;51.97
26043;BME280;13818;52.156;5.382;2023-04-05T10:25:25;102022.66;;;11.10;50.79
26043;BME280;13818;52.156;5.382;2023-04-05T10:27:53;102033.19;;;10.83;51.20
26043;BME280;13818;52.156;5.382;2023-04-05T10:30:23;102025.72;;;10.63;52.32
26043;BME280;13818;52.156;5.382;2023-04-05T10:33:06;102019.31;;;10.70;52.54
26043;BME280;13818;52.156;5.382;2023-04-05T10:35:44;102021.91;;;10.73;51.96
26043;BME280;13818;52.156;5.382;2023-04-05T10:38:21;102019.09;;;10.79;52.44
26043;BME280;13818;52.156;5.382;2023-04-05T10:40:52;102014.38;;;10.56;52.04
26043;BME280;13818;52.156;5.382;2023-04-05T10:43:22;102008.03;;;10.60;52.05
26043;BME280;13818;52.156;5.382;2023-04-05T10:45:51;102006.00;;;10.70;53.20
26043;BME280;13818;52.156;5.382;2023-04-05T10:48:20;102007.19;;;10.91;52.74
26043;BME280;13818;52.156;5.382;2023-04-05T10:50:51;102008.47;;;10.45;54.14
26043;BME280;13818;52.156;5.382;2023-04-05T10:53:18;102001.66;;;10.31;55.14
26043;BME280;13818;52.156;5.382;2023-04-05T10:55:46;101999.97;;;10.63;52.11
26043;BME280;13818;52.156;5.382;2023-04-05T10:58:14;101998.56;;;10.81;52.02
26043;BME280;13818;52.156;5.382;2023-04-05T11:00:41;101996.06;;;10.75;52.67
26043;BME280;13818;52.156;5.382;2023-04-05T11:03:10;102000.09;;;10.90;53.09
26043;BME280;13818;52.156;5.382;2023-04-05T11:05:37;101994.38;;;10.39;53.48
26043;BME280;13818;52.156;5.382;2023-04-05T11:08:05;101988.69;;;10.19;54.21
26043;BME280;13818;52.156;5.382;2023-04-05T11:10:34;101984.03;;;10.62;53.49
26043;BME280;13818;52.156;5.382;2023-04-05T11:13:02;101990.72;;;10.75;53.30
26043;BME280;13818;52.156;5.382;2023-04-05T11:15:30;101988.88;;;10.46;52.53
26043;BME280;13818;52.156;5.382;2023-04-05T11:18:08;101985.47;;;10.40;53.03
26043;BME280;13818;52.156;5.382;2023-04-05T11:20:47;101987.31;;;10.70;51.84
26043;BME280;13818;52.156;5.382;2023-04-05T11:23:19;101984.75;;;10.67;52.05
26043;BME280;13818;52.156;5.382;2023-04-05T11:25:50;101980.84;;;10.79;51.60
26043;BME280;13818;52.156;5.382;2023-04-05T11:28:27;101979.66;;;10.59;50.67
26043;BME280;13818;52.156;5.382;2023-04-05T11:30:56;101974.66;;;10.45;50.68
26043;BME280;13818;52.156;5.382;2023-04-05T11:36:33;101971.94;;;10.80;49.75
26043;BME280;13818;52.156;5.382;2023-04-05T11:39:27;101971.53;;;10.29;50.47
26043;BME280;13818;52.156;5.382;2023-04-05T11:41:59;101965.34;;;10.62;49.71
26043;BME280;13818;52.156;5.382;2023-04-05T11:44:26;101956.56;;;10.88;49.14
26043;BME280;13818;52.156;5.382;2023-04-05T11:46:53;101956.91;;;11.07;50.05
26043;BME280;13818;52.156;5.382;2023-04-05T11:49:20;101952.25;;;11.14;49.52
26043;BME280;13818;52.156;5.382;2023-04-05T11:51:50;101944.13;;;11.17;48.83
26043;BME280;13818;52.156;5.382;2023-04-05T11:54:32;101936.66;;;11.30;48.80
26043;BME280;13818;52.156;5.382;2023-04-05T11:56:59;101945.22;;;11.39;47.71
26043;BME280;13818;52.156;5.382;2023-04-05T11:59:30;101940.38;;;11.52;46.63
26043;BME280;13818;52.156;5.382;2023-04-05T12:01:58;101932.75;;;11.40;47.44
26043;BME280;13818;52.156;5.382;2023-04-05T12:04:24;101926.59;;;11.38;48.25
26043;BME280;13818;52.156;5.382;2023-04-05T12:07:10;101922.22;;;11.35;46.83
26043;BME280;13818;52.156;5.382;2023-04-05T12:10:04;101923.50;;;11.23;48.65
26043;BME280;13818;52.156;5.382;2023-04-05T12:12:37;101918.34;;;11.17;48.95
26043;BME280;13818;52.156;5.382;2023-04-05T12:15:04;101921.44;;;11.32;48.13
26043;BME280;13818;52.156;5.382;2023-04-05T12:17:43;101929.50;;;11.30;48.08
26043;BME280;13818;52.156;5.382;2023-04-05T12:20:12;101920.13;;;11.17;48.55
26043;BME280;13818;52.156;5.382;2023-04-05T12:22:42;101916.00;;;11.06;48.29
26043;BME280;13818;52.156;5.382;2023-04-05T12:25:09;101913.06;;;11.16;47.94
26043;BME280;13818;52.156;5.382;2023-04-05T12:27:37;101913.44;;;11.03;48.94
26043;BME280;13818;52.156;5.382;2023-04-05T12:30:09;101916.13;;;11.03;47.76
26043;BME280;13818;52.156;5.382;2023-04-05T12:32:43;101914.13;;;11.10;47.94
26043;BME280;13818;52.156;5.382;2023-04-05T12:35:10;101913.63;;;10.97;48.15
26043;BME280;13818;52.156;5.382;2023-04-05T12:37:38;101908.09;;;11.03;47.92
26043;BME280;13818;52.156;5.382;2023-04-05T12:40:07;101905.09;;;11.14;47.37
26043;BME280;13818;52.156;5.382;2023-04-05T12:42:34;101902.28;;;11.19;47.84
26043;BME280;13818;52.156;5.382;2023-04-05T12:45:02;101914.22;;;11.07;47.53
26043;BME280;13818;52.156;5.382;2023-04-05T12:47:32;101905.06;;;11.16;47.56
26043;BME280;13818;52.156;5.382;2023-04-05T12:50:09;101895.84;;;11.26;47.38
26043;BME280;13818;52.156;5.382;2023-04-05T12:52:35;101889.66;;;11.24;47.03
26043;BME280;13818;52.156;5.382;2023-04-05T12:55:02;101897.69;;;10.94;47.29
26043;BME280;13818;52.156;5.382;2023-04-05T12:57:30;101885.38;;;10.90;48.49
26043;BME280;13818;52.156;5.382;2023-04-05T12:59:57;101884.47;;;11.19;48.10
26043;BME280;13818;52.156;5.382;2023-04-05T13:02:23;101877.97;;;11.00;48.10